sensor_id;sensor_type;location;lat;lon;timestamp;temperature;humidity
55721;DHT22;41626;53.098;6.168;2023-04-15T00:00:45;6.70;99.90
55721;DHT22;41626;53.098;6.168;2023-04-15T00:03:11;6.50;99.90
55721;DHT22;41626;53.098;6.168;2023-04-15T00:05:37;6.60;99.90
55721;DHT22;41626;53.098;6.168;2023-04-15T00:08:02;6.70;99.90
55721;DHT22;41626;53.098;6.168;2023-04-15T00:10:28;6.60;99.90
55721;DHT22;41626;53.098;6.168;2023-04-15T00:12:54;6.50;99.90
55721;DHT22;41626;53.098;6.168;2023-04-15T00:15:20;6.40;99.90
55721;DHT22;41626;53.098;6.168;2023-04-15T00:17:45;6.40;99.90
55721;DHT22;41626;53.098;6.168;2023-04-15T00:20:11;6.50;99.90
55721;DHT22;41626;53.098;6.168;2023-04-15T00:22:37;6.40;99.90
55721;DHT22;41626;53.098;6.168;2023-04-15T00:25:02;6.50;99.90
55721;DHT22;41626;53.098;6.168;2023-04-15T00:27:28;6.40;99.90
55721;DHT22;41626;53.098;6.168;2023-04-15T00:29:54;6.30;99.90
55721;DHT22;41626;53.098;6.168;2023-04-15T00:32:20;6.40;99.90
55721;DHT22;41626;53.098;6.168;2023-04-15T00:34:46;6.30;99.90
55721;DHT22;41626;53.098;6.168;2023-04-15T00:37:12;6.30;99.90
55721;DHT22;41626;53.098;6.168;2023-04-15T00:39:37;6.20;99.90
55721;DHT22;41626;53.098;6.168;2023-04-15T00:42:04;6.20;99.90
55721;DHT22;41626;53.098;6.168;2023-04-15T00:44:30;6.20;99.90
55721;DHT22;41626;53.098;6.168;2023-04-15T00:46:56;6.10;99.90
55721;DHT22;41626;53.098;6.168;2023-04-15T00:49:23;6.10;99.90
55721;DHT22;41626;53.098;6.168;2023-04-15T00:51:49;6.10;99.90
55721;DHT22;41626;53.098;6.168;2023-04-15T00:54:15;6.10;99.90
55721;DHT22;41626;53.098;6.168;2023-04-15T00:56:41;6.00;99.90
55721;DHT22;41626;53.098;6.168;2023-04-15T00:59:07;6.00;99.90
55721;DHT22;41626;53.098;6.168;2023-04-15T01:01:37;5.80;99.90
55721;DHT22;41626;53.098;6.168;2023-04-15T01:04:03;5.90;99.90
55721;DHT22;41626;53.098;6.168;2023-04-15T01:06:32;5.70;99.90
55721;DHT22;41626;53.098;6.168;2023-04-15T01:08:58;5.60;99.90
55721;DHT22;41626;53.098;6.168;2023-04-15T01:11:24;5.40;99.90
55721;DHT22;41626;53.098;6.168;2023-04-15T01:13:51;5.40;99.90
55721;DHT22;41626;53.098;6.168;2023-04-15T01:16:18;5.50;99.90
55721;DHT22;41626;53.098;6.168;2023-04-15T01:18:44;5.30;99.90
55721;DHT22;41626;53.098;6.168;2023-04-15T01:21:11;5.30;99.90
55721;DHT22;41626;53.098;6.168;2023-04-15T01:23:37;5.30;99.90
55721;DHT22;41626;53.098;6.168;2023-04-15T01:26:05;5.30;99.90
55721;DHT22;41626;53.098;6.168;2023-04-15T01:28:32;5.40;99.90
55721;DHT22;41626;53.098;6.168;2023-04-15T01:31:05;5.40;99.90
55721;DHT22;41626;53.098;6.168;2023-04-15T01:33:32;5.30;99.90
55721;DHT22;41626;53.098;6.168;2023-04-15T01:35:57;5.40;99.90
55721;DHT22;41626;53.098;6.168;2023-04-15T01:38:24;5.20;99.90
55721;DHT22;41626;53.098;6.168;2023-04-15T01:40:50;5.20;99.90
55721;DHT22;41626;53.098;6.168;2023-04-15T01:43:15;5.20;99.90
55721;DHT22;41626;53.098;6.168;2023-04-15T01:45:41;5.30;99.90
55721;DHT22;41626;53.098;6.168;2023-04-15T01:48:07;5.30;99.90
55721;DHT22;41626;53.098;6.168;2023-04-15T01:50:33;5.30;99.90
55721;DHT22;41626;53.098;6.168;2023-04-15T01:53:01;5.20;99.90
55721;DHT22;41626;53.098;6.168;2023-04-15T01:55:26;5.10;99.90
55721;DHT22;41626;53.098;6.168;2023-04-15T01:57:52;5.10;99.90
55721;DHT22;41626;53.098;6.168;2023-04-15T02:00:18;5.20;99.90
55721;DHT22;41626;53.098;6.168;2023-04-15T02:02:43;5.20;99.90
55721;DHT22;41626;53.098;6.168;2023-04-15T02:05:09;5.10;99.90
55721;DHT22;41626;53.098;6.168;2023-04-15T02:07:35;5.10;99.90
55721;DHT22;41626;53.098;6.168;2023-04-15T02:10:01;5.10;99.90
55721;DHT22;41626;53.098;6.168;2023-04-15T02:12:28;5.10;99.90
55721;DHT22;41626;53.098;6.168;2023-04-15T02:14:54;5.00;99.90
55721;DHT22;41626;53.098;6.168;2023-04-15T02:17:20;5.10;99.90
55721;DHT22;41626;53.098;6.168;2023-04-15T02:19:46;4.90;99.90
55721;DHT22;41626;53.098;6.168;2023-04-15T02:22:12;5.00;99.90
55721;DHT22;41626;53.098;6.168;2023-04-15T02:24:43;5.00;99.90
55721;DHT22;41626;53.098;6.168;2023-04-15T02:27:09;5.10;99.90
55721;DHT22;41626;53.098;6.168;2023-04-15T02:29:34;5.00;99.90
55721;DHT22;41626;53.098;6.168;2023-04-15T02:32:00;5.00;99.90
55721;DHT22;41626;53.098;6.168;2023-04-15T02:34:26;4.90;99.90
55721;DHT22;41626;53.098;6.168;2023-04-15T02:36:51;4.80;99.90
55721;DHT22;41626;53.098;6.168;2023-04-15T02:39:21;4.70;99.90
55721;DHT22;41626;53.098;6.168;2023-04-15T02:41:48;4.70;99.90
55721;DHT22;41626;53.098;6.168;2023-04-15T02:44:16;4.50;99.90
55721;DHT22;41626;53.098;6.168;2023-04-15T02:46:45;4.50;99.90
55721;DHT22;41626;53.098;6.168;2023-04-15T02:49:15;4.50;99.90
55721;DHT22;41626;53.098;6.168;2023-04-15T02:51:40;4.60;99.90
55721;DHT22;41626;53.098;6.168;2023-04-15T02:54:06;4.70;99.90
55721;DHT22;41626;53.098;6.168;2023-04-15T02:56:33;4.60;99.90
55721;DHT22;41626;53.098;6.168;2023-04-15T02:58:58;4.60;99.90
55721;DHT22;41626;53.098;6.168;2023-04-15T03:01:25;4.60;99.90
55721;DHT22;41626;53.098;6.168;2023-04-15T03:03:50;4.40;99.90
55721;DHT22;41626;53.098;6.168;2023-04-15T03:06:16;4.40;99.90
55721;DHT22;41626;53.098;6.168;2023-04-15T03:08:42;4.40;99.90
55721;DHT22;41626;53.098;6.168;2023-04-15T03:11:07;4.50;99.90
55721;DHT22;41626;53.098;6.168;2023-04-15T03:13:33;4.50;99.90
55721;DHT22;41626;53.098;6.168;2023-04-15T03:15:59;4.60;99.90
55721;DHT22;41626;53.098;6.168;2023-04-15T03:18:24;4.60;99.90
55721;DHT22;41626;53.098;6.168;2023-04-15T03:20:50;4.60;99.90
55721;DHT22;41626;53.098;6.168;2023-04-15T03:23:16;4.70;99.90
55721;DHT22;41626;53.098;6.168;2023-04-15T03:25:43;4.70;99.90
55721;DHT22;41626;53.098;6.168;2023-04-15T03:28:09;4.50;99.90
55721;DHT22;41626;53.098;6.168;2023-04-15T03:30:35;4.50;99.90
55721;DHT22;41626;53.098;6.168;2023-04-15T03:33:00;4.50;99.90
55721;DHT22;41626;53.098;6.168;2023-04-15T03:35:26;4.40;99.90
55721;DHT22;41626;53.098;6.168;2023-04-15T03:37:52;4.20;99.90
55721;DHT22;41626;53.098;6.168;2023-04-15T03:40:17;4.40;99.90
55721;DHT22;41626;53.098;6.168;2023-04-15T03:42:43;4.50;99.90
55721;DHT22;41626;53.098;6.168;2023-04-15T03:45:09;4.50;99.90
55721;DHT22;41626;53.098;6.168;2023-04-15T03:47:35;4.40;99.90
55721;DHT22;41626;53.098;6.168;2023-04-15T03:50:00;4.50;99.90
55721;DHT22;41626;53.098;6.168;2023-04-15T03:52:26;4.40;99.90
55721;DHT22;41626;53.098;6.168;2023-04-15T03:54:51;4.40;99.90
55721;DHT22;41626;53.098;6.168;2023-04-15T03:57:17;4.30;99.90
55721;DHT22;41626;53.098;6.168;2023-04-15T03:59:43;4.30;99.90
55721;DHT22;41626;53.098;6.168;2023-04-15T04:02:08;4.30;99.90
55721;DHT22;41626;53.098;6.168;2023-04-15T04:04:34;4.40;99.90
55721;DHT22;41626;53.098;6.168;2023-04-15T04:07:00;4.30;99.90
55721;DHT22;41626;53.098;6.168;2023-04-15T04:09:25;4.30;99.90
55721;DHT22;41626;53.098;6.168;2023-04-15T04:11:52;4.30;99.90
55721;DHT22;41626;53.098;6.168;2023-04-15T04:14:17;4.20;99.90
55721;DHT22;41626;53.098;6.168;2023-04-15T04:16:43;4.40;99.90
55721;DHT22;41626;53.098;6.168;2023-04-15T04:19:09;4.40;99.90
55721;DHT22;41626;53.098;6.168;2023-04-15T04:21:35;4.40;99.90
55721;DHT22;41626;53.098;6.168;2023-04-15T04:24:01;4.20;99.90
55721;DHT22;41626;53.098;6.168;2023-04-15T04:26:26;4.30;99.90
55721;DHT22;41626;53.098;6.168;2023-04-15T04:28:52;4.40;99.90
55721;DHT22;41626;53.098;6.168;2023-04-15T04:31:18;4.20;99.90
55721;DHT22;41626;53.098;6.168;2023-04-15T04:33:43;4.30;99.90
55721;DHT22;41626;53.098;6.168;2023-04-15T04:36:09;4.30;99.90
55721;DHT22;41626;53.098;6.168;2023-04-15T04:38:35;4.30;99.90
55721;DHT22;41626;53.098;6.168;2023-04-15T04:41:01;4.30;99.90
55721;DHT22;41626;53.098;6.168;2023-04-15T04:43:26;4.30;99.90
55721;DHT22;41626;53.098;6.168;2023-04-15T04:45:52;4.40;99.90
55721;DHT22;41626;53.098;6.168;2023-04-15T04:48:17;4.40;99.90
55721;DHT22;41626;53.098;6.168;2023-04-15T04:50:44;4.40;99.90
55721;DHT22;41626;53.098;6.168;2023-04-15T04:53:11;4.30;99.90
55721;DHT22;41626;53.098;6.168;2023-04-15T04:55:37;4.40;99.90
55721;DHT22;41626;53.098;6.168;2023-04-15T04:58:02;4.40;99.90
55721;DHT22;41626;53.098;6.168;2023-04-15T05:00:28;4.40;99.90
55721;DHT22;41626;53.098;6.168;2023-04-15T05:02:54;4.50;99.90
55721;DHT22;41626;53.098;6.168;2023-04-15T05:05:20;4.50;99.90
55721;DHT22;41626;53.098;6.168;2023-04-15T05:07:46;4.60;99.90
55721;DHT22;41626;53.098;6.168;2023-04-15T05:10:13;4.60;99.90
55721;DHT22;41626;53.098;6.168;2023-04-15T05:12:39;4.60;99.90
55721;DHT22;41626;53.098;6.168;2023-04-15T05:15:06;5.00;99.90
55721;DHT22;41626;53.098;6.168;2023-04-15T05:17:31;5.20;99.90
55721;DHT22;41626;53.098;6.168;2023-04-15T05:20:00;5.30;99.90
55721;DHT22;41626;53.098;6.168;2023-04-15T05:22:25;5.40;99.90
55721;DHT22;41626;53.098;6.168;2023-04-15T05:24:51;5.50;99.90
55721;DHT22;41626;53.098;6.168;2023-04-15T05:27:17;5.90;99.90
55721;DHT22;41626;53.098;6.168;2023-04-15T05:29:43;5.90;99.90
55721;DHT22;41626;53.098;6.168;2023-04-15T05:32:09;6.30;99.90
55721;DHT22;41626;53.098;6.168;2023-04-15T05:34:35;6.30;99.90
55721;DHT22;41626;53.098;6.168;2023-04-15T05:37:01;6.50;99.90
55721;DHT22;41626;53.098;6.168;2023-04-15T05:39:26;6.40;99.90
55721;DHT22;41626;53.098;6.168;2023-04-15T05:41:52;6.30;99.90
55721;DHT22;41626;53.098;6.168;2023-04-15T05:44:18;6.30;99.90
55721;DHT22;41626;53.098;6.168;2023-04-15T05:46:43;6.10;99.90
55721;DHT22;41626;53.098;6.168;2023-04-15T05:49:09;6.20;99.90
55721;DHT22;41626;53.098;6.168;2023-04-15T05:51:35;6.20;99.90
55721;DHT22;41626;53.098;6.168;2023-04-15T05:54:00;6.20;99.90
55721;DHT22;41626;53.098;6.168;2023-04-15T05:56:26;6.20;99.90
55721;DHT22;41626;53.098;6.168;2023-04-15T05:58:52;6.50;99.90
55721;DHT22;41626;53.098;6.168;2023-04-15T06:01:18;6.40;99.90
55721;DHT22;41626;53.098;6.168;2023-04-15T06:03:43;6.70;99.90
55721;DHT22;41626;53.098;6.168;2023-04-15T06:06:09;6.80;99.90
55721;DHT22;41626;53.098;6.168;2023-04-15T06:08:35;6.90;99.90
55721;DHT22;41626;53.098;6.168;2023-04-15T06:11:01;7.00;99.90
55721;DHT22;41626;53.098;6.168;2023-04-15T06:13:26;6.90;99.90
55721;DHT22;41626;53.098;6.168;2023-04-15T06:15:52;7.20;99.90
55721;DHT22;41626;53.098;6.168;2023-04-15T06:18:18;7.30;99.90
55721;DHT22;41626;53.098;6.168;2023-04-15T06:20:45;7.10;99.90
55721;DHT22;41626;53.098;6.168;2023-04-15T06:23:10;7.10;99.90
55721;DHT22;41626;53.098;6.168;2023-04-15T06:25:36;7.00;99.90
55721;DHT22;41626;53.098;6.168;2023-04-15T06:28:02;7.00;99.90
55721;DHT22;41626;53.098;6.168;2023-04-15T06:30:28;7.00;99.90
55721;DHT22;41626;53.098;6.168;2023-04-15T06:32:54;7.00;99.90
55721;DHT22;41626;53.098;6.168;2023-04-15T06:35:20;7.10;99.90
55721;DHT22;41626;53.098;6.168;2023-04-15T06:37:46;7.10;99.90
55721;DHT22;41626;53.098;6.168;2023-04-15T06:40:12;7.10;99.90
55721;DHT22;41626;53.098;6.168;2023-04-15T06:42:38;7.10;99.90
55721;DHT22;41626;53.098;6.168;2023-04-15T06:45:04;7.20;99.90
55721;DHT22;41626;53.098;6.168;2023-04-15T06:47:30;7.30;99.90
55721;DHT22;41626;53.098;6.168;2023-04-15T06:49:56;7.40;99.90
55721;DHT22;41626;53.098;6.168;2023-04-15T06:52:21;7.50;99.90
55721;DHT22;41626;53.098;6.168;2023-04-15T06:54:47;7.80;99.90
55721;DHT22;41626;53.098;6.168;2023-04-15T06:57:12;8.00;99.90
55721;DHT22;41626;53.098;6.168;2023-04-15T06:59:38;8.30;99.90
55721;DHT22;41626;53.098;6.168;2023-04-15T07:02:04;8.50;99.90
55721;DHT22;41626;53.098;6.168;2023-04-15T07:04:29;8.80;99.90
55721;DHT22;41626;53.098;6.168;2023-04-15T07:06:55;9.10;99.90
55721;DHT22;41626;53.098;6.168;2023-04-15T07:09:22;9.50;99.90
55721;DHT22;41626;53.098;6.168;2023-04-15T07:11:48;9.50;99.90
55721;DHT22;41626;53.098;6.168;2023-04-15T07:14:14;9.00;99.90
55721;DHT22;41626;53.098;6.168;2023-04-15T07:16:39;9.00;99.90
55721;DHT22;41626;53.098;6.168;2023-04-15T07:19:05;8.90;99.90
55721;DHT22;41626;53.098;6.168;2023-04-15T07:21:31;8.70;99.90
55721;DHT22;41626;53.098;6.168;2023-04-15T07:23:56;8.90;99.90
55721;DHT22;41626;53.098;6.168;2023-04-15T07:26:23;9.00;99.90
55721;DHT22;41626;53.098;6.168;2023-04-15T07:28:49;8.90;99.90
55721;DHT22;41626;53.098;6.168;2023-04-15T07:31:14;9.00;99.90
55721;DHT22;41626;53.098;6.168;2023-04-15T07:33:41;9.00;99.90
55721;DHT22;41626;53.098;6.168;2023-04-15T07:36:07;9.20;99.90
55721;DHT22;41626;53.098;6.168;2023-04-15T07:38:32;9.30;99.90
55721;DHT22;41626;53.098;6.168;2023-04-15T07:40:58;9.10;99.90
55721;DHT22;41626;53.098;6.168;2023-04-15T07:43:24;9.30;99.90
55721;DHT22;41626;53.098;6.168;2023-04-15T07:45:49;9.20;99.90
55721;DHT22;41626;53.098;6.168;2023-04-15T07:48:15;9.40;99.90
55721;DHT22;41626;53.098;6.168;2023-04-15T07:50:41;9.50;99.90
55721;DHT22;41626;53.098;6.168;2023-04-15T07:53:07;9.70;99.90
55721;DHT22;41626;53.098;6.168;2023-04-15T07:55:33;9.70;99.90
55721;DHT22;41626;53.098;6.168;2023-04-15T07:57:59;9.80;99.90
55721;DHT22;41626;53.098;6.168;2023-04-15T08:00:25;9.50;99.90
55721;DHT22;41626;53.098;6.168;2023-04-15T08:02:51;9.80;99.90
55721;DHT22;41626;53.098;6.168;2023-04-15T08:05:18;9.90;99.90
55721;DHT22;41626;53.098;6.168;2023-04-15T08:07:44;10.00;99.90
55721;DHT22;41626;53.098;6.168;2023-04-15T08:10:10;10.10;99.90
55721;DHT22;41626;53.098;6.168;2023-04-15T08:12:36;10.00;99.90
55721;DHT22;41626;53.098;6.168;2023-04-15T08:15:02;10.10;99.90
55721;DHT22;41626;53.098;6.168;2023-04-15T08:17:28;9.90;99.90
55721;DHT22;41626;53.098;6.168;2023-04-15T08:19:54;10.10;99.90
55721;DHT22;41626;53.098;6.168;2023-04-15T08:22:19;10.20;99.90
55721;DHT22;41626;53.098;6.168;2023-04-15T08:24:45;10.20;99.90
55721;DHT22;41626;53.098;6.168;2023-04-15T08:27:11;9.80;99.90
55721;DHT22;41626;53.098;6.168;2023-04-15T08:29:37;9.80;99.90
55721;DHT22;41626;53.098;6.168;2023-04-15T08:32:03;10.30;99.90
55721;DHT22;41626;53.098;6.168;2023-04-15T08:34:28;9.70;99.90
55721;DHT22;41626;53.098;6.168;2023-04-15T08:36:55;9.70;99.90
55721;DHT22;41626;53.098;6.168;2023-04-15T08:39:21;9.50;99.90
55721;DHT22;41626;53.098;6.168;2023-04-15T08:41:56;9.30;99.90
55721;DHT22;41626;53.098;6.168;2023-04-15T08:44:25;9.30;99.90
55721;DHT22;41626;53.098;6.168;2023-04-15T08:46:55;9.50;99.90
55721;DHT22;41626;53.098;6.168;2023-04-15T08:49:23;9.80;99.90
55721;DHT22;41626;53.098;6.168;2023-04-15T08:51:51;9.50;99.90
55721;DHT22;41626;53.098;6.168;2023-04-15T08:54:18;9.70;99.90
55721;DHT22;41626;53.098;6.168;2023-04-15T08:56:43;9.80;99.90
55721;DHT22;41626;53.098;6.168;2023-04-15T08:59:10;9.70;99.90
55721;DHT22;41626;53.098;6.168;2023-04-15T09:01:37;9.70;99.90
55721;DHT22;41626;53.098;6.168;2023-04-15T09:04:02;9.50;99.90
55721;DHT22;41626;53.098;6.168;2023-04-15T09:06:32;9.40;99.90
55721;DHT22;41626;53.098;6.168;2023-04-15T09:08:58;9.20;99.90
55721;DHT22;41626;53.098;6.168;2023-04-15T09:11:23;9.40;99.90
55721;DHT22;41626;53.098;6.168;2023-04-15T09:13:50;9.20;99.90
55721;DHT22;41626;53.098;6.168;2023-04-15T09:16:16;9.50;99.90
55721;DHT22;41626;53.098;6.168;2023-04-15T09:18:42;9.60;99.90
55721;DHT22;41626;53.098;6.168;2023-04-15T09:21:10;9.50;99.90
55721;DHT22;41626;53.098;6.168;2023-04-15T09:23:37;9.60;99.90
55721;DHT22;41626;53.098;6.168;2023-04-15T09:26:04;9.50;99.90
55721;DHT22;41626;53.098;6.168;2023-04-15T09:28:30;9.80;99.90
55721;DHT22;41626;53.098;6.168;2023-04-15T09:30:59;9.50;99.90
55721;DHT22;41626;53.098;6.168;2023-04-15T09:33:26;9.60;99.90
55721;DHT22;41626;53.098;6.168;2023-04-15T09:38:26;9.70;99.90
55721;DHT22;41626;53.098;6.168;2023-04-15T09:40:52;9.90;99.90
55721;DHT22;41626;53.098;6.168;2023-04-15T09:43:18;10.00;99.90
55721;DHT22;41626;53.098;6.168;2023-04-15T09:45:47;10.10;99.90
55721;DHT22;41626;53.098;6.168;2023-04-15T09:48:19;10.40;99.90
55721;DHT22;41626;53.098;6.168;2023-04-15T09:50:48;10.10;99.90
55721;DHT22;41626;53.098;6.168;2023-04-15T09:53:16;10.20;99.90
55721;DHT22;41626;53.098;6.168;2023-04-15T09:55:55;10.20;99.90
55721;DHT22;41626;53.098;6.168;2023-04-15T09:58:31;9.90;99.90
55721;DHT22;41626;53.098;6.168;2023-04-15T10:00:59;10.60;99.90
55721;DHT22;41626;53.098;6.168;2023-04-15T10:03:28;10.40;99.90
55721;DHT22;41626;53.098;6.168;2023-04-15T10:05:56;10.20;99.90
55721;DHT22;41626;53.098;6.168;2023-04-15T10:08:23;9.90;99.90
55721;DHT22;41626;53.098;6.168;2023-04-15T10:10:50;9.90;99.90
55721;DHT22;41626;53.098;6.168;2023-04-15T10:13:20;10.40;99.90
55721;DHT22;41626;53.098;6.168;2023-04-15T10:15:57;10.20;99.90
55721;DHT22;41626;53.098;6.168;2023-04-15T10:18:25;10.30;99.90
55721;DHT22;41626;53.098;6.168;2023-04-15T10:20:52;10.40;99.90
55721;DHT22;41626;53.098;6.168;2023-04-15T10:23:19;10.60;99.90
55721;DHT22;41626;53.098;6.168;2023-04-15T10:25:46;10.00;99.90
55721;DHT22;41626;53.098;6.168;2023-04-15T10:28:12;10.10;99.90
55721;DHT22;41626;53.098;6.168;2023-04-15T10:30:39;10.10;99.90
55721;DHT22;41626;53.098;6.168;2023-04-15T10:33:05;10.00;99.90
55721;DHT22;41626;53.098;6.168;2023-04-15T10:35:32;10.20;99.90
55721;DHT22;41626;53.098;6.168;2023-04-15T10:38:01;10.00;99.90
55721;DHT22;41626;53.098;6.168;2023-04-15T10:40:27;9.90;99.90
55721;DHT22;41626;53.098;6.168;2023-04-15T10:42:58;9.80;99.90
55721;DHT22;41626;53.098;6.168;2023-04-15T10:45:31;9.80;99.90
55721;DHT22;41626;53.098;6.168;2023-04-15T10:47:58;9.90;99.90
55721;DHT22;41626;53.098;6.168;2023-04-15T10:50:26;9.80;99.90
55721;DHT22;41626;53.098;6.168;2023-04-15T10:52:53;9.90;99.90
55721;DHT22;41626;53.098;6.168;2023-04-15T10:55:21;9.90;99.90
55721;DHT22;41626;53.098;6.168;2023-04-15T10:57:51;9.70;99.90
55721;DHT22;41626;53.098;6.168;2023-04-15T11:00:18;9.80;99.90
55721;DHT22;41626;53.098;6.168;2023-04-15T11:02:54;10.00;99.90
55721;DHT22;41626;53.098;6.168;2023-04-15T11:08:14;9.70;99.90
55721;DHT22;41626;53.098;6.168;2023-04-15T11:15:40;10.10;99.90
55721;DHT22;41626;53.098;6.168;2023-04-15T11:18:12;9.90;99.90
55721;DHT22;41626;53.098;6.168;2023-04-15T11:20:39;9.80;99.90
55721;DHT22;41626;53.098;6.168;2023-04-15T11:23:05;9.70;99.90
55721;DHT22;41626;53.098;6.168;2023-04-15T11:25:33;10.00;99.90
55721;DHT22;41626;53.098;6.168;2023-04-15T11:28:00;9.90;99.90
55721;DHT22;41626;53.098;6.168;2023-04-15T11:30:28;9.90;99.90
55721;DHT22;41626;53.098;6.168;2023-04-15T11:32:58;9.80;99.90
55721;DHT22;41626;53.098;6.168;2023-04-15T11:35:23;9.80;99.90
55721;DHT22;41626;53.098;6.168;2023-04-15T11:37:49;9.80;99.90
55721;DHT22;41626;53.098;6.168;2023-04-15T11:40:16;9.90;99.90
55721;DHT22;41626;53.098;6.168;2023-04-15T11:42:45;9.70;99.90
55721;DHT22;41626;53.098;6.168;2023-04-15T11:45:13;9.50;99.90
55721;DHT22;41626;53.098;6.168;2023-04-15T11:47:42;9.50;99.90
55721;DHT22;41626;53.098;6.168;2023-04-15T11:50:18;9.40;99.90
55721;DHT22;41626;53.098;6.168;2023-04-15T11:52:54;9.30;99.90
55721;DHT22;41626;53.098;6.168;2023-04-15T11:55:22;9.40;99.90
55721;DHT22;41626;53.098;6.168;2023-04-15T11:58:11;9.30;99.90
55721;DHT22;41626;53.098;6.168;2023-04-15T12:00:36;9.40;99.90
55721;DHT22;41626;53.098;6.168;2023-04-15T12:06:03;9.30;99.90
55721;DHT22;41626;53.098;6.168;2023-04-15T12:11:46;9.30;99.90
55721;DHT22;41626;53.098;6.168;2023-04-15T12:14:23;9.60;99.90
55721;DHT22;41626;53.098;6.168;2023-04-15T12:16:51;9.40;99.90
55721;DHT22;41626;53.098;6.168;2023-04-15T12:19:41;9.40;99.90
55721;DHT22;41626;53.098;6.168;2023-04-15T12:22:12;9.20;99.90
55721;DHT22;41626;53.098;6.168;2023-04-15T12:24:38;9.20;99.90
55721;DHT22;41626;53.098;6.168;2023-04-15T12:27:10;9.10;99.90
55721;DHT22;41626;53.098;6.168;2023-04-15T12:29:37;9.10;99.90
55721;DHT22;41626;53.098;6.168;2023-04-15T12:32:11;9.20;99.90
55721;DHT22;41626;53.098;6.168;2023-04-15T12:34:39;9.40;99.90
55721;DHT22;41626;53.098;6.168;2023-04-15T12:37:08;9.50;99.90
55721;DHT22;41626;53.098;6.168;2023-04-15T12:39:39;9.40;99.90
55721;DHT22;41626;53.098;6.168;2023-04-15T12:42:06;9.20;99.90
55721;DHT22;41626;53.098;6.168;2023-04-15T12:44:32;9.30;99.90
55721;DHT22;41626;53.098;6.168;2023-04-15T12:46:58;9.20;99.90
55721;DHT22;41626;53.098;6.168;2023-04-15T12:49:27;9.40;99.90
55721;DHT22;41626;53.098;6.168;2023-04-15T12:51:57;9.40;99.90
55721;DHT22;41626;53.098;6.168;2023-04-15T12:54:24;9.40;99.90
55721;DHT22;41626;53.098;6.168;2023-04-15T12:56:51;9.40;99.90
55721;DHT22;41626;53.098;6.168;2023-04-15T12:59:17;9.30;99.90
55721;DHT22;41626;53.098;6.168;2023-04-15T13:01:44;9.30;99.90
55721;DHT22;41626;53.098;6.168;2023-04-15T13:04:09;9.20;99.90
55721;DHT22;41626;53.098;6.168;2023-04-15T13:06:35;9.20;99.90
55721;DHT22;41626;53.098;6.168;2023-04-15T13:09:03;9.50;99.90
55721;DHT22;41626;53.098;6.168;2023-04-15T13:11:29;9.20;99.90
55721;DHT22;41626;53.098;6.168;2023-04-15T13:13:56;9.50;99.90
55721;DHT22;41626;53.098;6.168;2023-04-15T13:16:22;9.50;99.90
55721;DHT22;41626;53.098;6.168;2023-04-15T13:18:49;9.50;99.90
55721;DHT22;41626;53.098;6.168;2023-04-15T13:21:15;9.40;99.90
55721;DHT22;41626;53.098;6.168;2023-04-15T13:23:41;9.50;99.90
55721;DHT22;41626;53.098;6.168;2023-04-15T13:26:07;9.30;99.90
55721;DHT22;41626;53.098;6.168;2023-04-15T13:28:33;9.60;99.90
55721;DHT22;41626;53.098;6.168;2023-04-15T13:30:59;9.50;99.90
55721;DHT22;41626;53.098;6.168;2023-04-15T13:33:25;9.40;99.90
55721;DHT22;41626;53.098;6.168;2023-04-15T13:35:51;9.60;99.90
55721;DHT22;41626;53.098;6.168;2023-04-15T13:38:16;9.60;99.90
55721;DHT22;41626;53.098;6.168;2023-04-15T13:40:42;9.50;99.90
55721;DHT22;41626;53.098;6.168;2023-04-15T13:43:07;9.60;99.90
55721;DHT22;41626;53.098;6.168;2023-04-15T13:45:33;9.50;99.90
55721;DHT22;41626;53.098;6.168;2023-04-15T13:47:59;9.50;99.90
55721;DHT22;41626;53.098;6.168;2023-04-15T13:50:24;9.50;99.90
55721;DHT22;41626;53.098;6.168;2023-04-15T13:52:50;9.30;99.90
55721;DHT22;41626;53.098;6.168;2023-04-15T13:55:16;9.20;99.90
55721;DHT22;41626;53.098;6.168;2023-04-15T13:57:42;9.20;99.90
55721;DHT22;41626;53.098;6.168;2023-04-15T14:00:08;9.30;99.90
55721;DHT22;41626;53.098;6.168;2023-04-15T14:02:33;9.40;99.90
55721;DHT22;41626;53.098;6.168;2023-04-15T14:04:59;9.10;99.90
55721;DHT22;41626;53.098;6.168;2023-04-15T14:07:25;9.10;99.90
55721;DHT22;41626;53.098;6.168;2023-04-15T14:09:50;9.20;99.90
55721;DHT22;41626;53.098;6.168;2023-04-15T14:12:16;9.20;99.90
55721;DHT22;41626;53.098;6.168;2023-04-15T14:14:42;9.20;99.90
55721;DHT22;41626;53.098;6.168;2023-04-15T14:17:07;9.10;99.90
55721;DHT22;41626;53.098;6.168;2023-04-15T14:19:34;9.10;99.90
55721;DHT22;41626;53.098;6.168;2023-04-15T14:22:00;9.20;99.90
55721;DHT22;41626;53.098;6.168;2023-04-15T14:24:25;9.10;99.90
55721;DHT22;41626;53.098;6.168;2023-04-15T14:26:52;9.20;99.90
55721;DHT22;41626;53.098;6.168;2023-04-15T14:29:17;9.10;99.90
55721;DHT22;41626;53.098;6.168;2023-04-15T14:31:43;9.10;99.90
55721;DHT22;41626;53.098;6.168;2023-04-15T14:34:09;9.20;99.90
55721;DHT22;41626;53.098;6.168;2023-04-15T14:36:35;9.30;99.90
55721;DHT22;41626;53.098;6.168;2023-04-15T14:39:02;8.90;99.90
55721;DHT22;41626;53.098;6.168;2023-04-15T14:41:28;9.00;99.90
55721;DHT22;41626;53.098;6.168;2023-04-15T14:43:54;9.10;99.90
55721;DHT22;41626;53.098;6.168;2023-04-15T14:46:21;9.00;99.90
55721;DHT22;41626;53.098;6.168;2023-04-15T14:48:47;9.10;99.90
55721;DHT22;41626;53.098;6.168;2023-04-15T14:51:12;8.90;99.90
55721;DHT22;41626;53.098;6.168;2023-04-15T14:53:38;9.00;99.90
55721;DHT22;41626;53.098;6.168;2023-04-15T14:56:04;9.00;99.90
55721;DHT22;41626;53.098;6.168;2023-04-15T14:58:30;9.00;99.90
55721;DHT22;41626;53.098;6.168;2023-04-15T15:00:57;9.00;99.90
55721;DHT22;41626;53.098;6.168;2023-04-15T15:03:23;8.90;99.90
55721;DHT22;41626;53.098;6.168;2023-04-15T15:05:48;8.90;99.90
55721;DHT22;41626;53.098;6.168;2023-04-15T15:08:14;9.00;99.90
55721;DHT22;41626;53.098;6.168;2023-04-15T15:10:40;8.80;99.90
55721;DHT22;41626;53.098;6.168;2023-04-15T15:13:07;8.80;99.90
55721;DHT22;41626;53.098;6.168;2023-04-15T15:15:34;8.80;99.90
55721;DHT22;41626;53.098;6.168;2023-04-15T15:18:00;8.70;99.90
55721;DHT22;41626;53.098;6.168;2023-04-15T15:20:26;8.70;99.90
55721;DHT22;41626;53.098;6.168;2023-04-15T15:22:52;8.60;99.90
55721;DHT22;41626;53.098;6.168;2023-04-15T15:25:17;8.70;99.90
55721;DHT22;41626;53.098;6.168;2023-04-15T15:27:43;8.60;99.90
55721;DHT22;41626;53.098;6.168;2023-04-15T15:30:09;8.60;99.90
55721;DHT22;41626;53.098;6.168;2023-04-15T15:32:37;8.70;99.90
55721;DHT22;41626;53.098;6.168;2023-04-15T15:35:02;8.70;99.90
55721;DHT22;41626;53.098;6.168;2023-04-15T15:37:29;8.60;99.90
55721;DHT22;41626;53.098;6.168;2023-04-15T15:39:55;8.50;99.90
55721;DHT22;41626;53.098;6.168;2023-04-15T15:42:22;8.50;99.90
55721;DHT22;41626;53.098;6.168;2023-04-15T15:44:48;8.60;99.90
55721;DHT22;41626;53.098;6.168;2023-04-15T15:47:15;8.50;99.90
55721;DHT22;41626;53.098;6.168;2023-04-15T15:49:40;8.50;99.90
55721;DHT22;41626;53.098;6.168;2023-04-15T15:52:06;8.40;99.90
55721;DHT22;41626;53.098;6.168;2023-04-15T15:54:32;8.50;99.90
55721;DHT22;41626;53.098;6.168;2023-04-15T15:56:58;8.60;99.90